BAW343 LGAV-EGLL
Flight info
| Callsign | BAW343 |
|---|---|
| Flight time | N/A |
| Altitude | 38000 |
| Route | KOR UL53 IPTES DCT DIMIS DCT VAKSU DCT ROTAR/N0486F400 DCT BORMI DCT RESIA DCT ELMUR L613 HOC DCT LUL DCT RLP DCT ROTSI DCT KOTUN DCT NINAL DCT ABNUR DCT DIMAL DCT ALESO |
| Aircraft | A388/J-SADE2E3FGHIJ3J4J5M1RWXY/LB1D1 |
Departure
| Time | 2026-05-05 17:21 |
|---|---|
| Airport | Athens Eleftherios Venizelos International Airport (LGAV) |
Arrival
| Time | N/A |
|---|---|
| Airport | London Heathrow Airport (EGLL) |
| Time | Latitude | Longitude | Altitude | Speed | Heading |
|---|---|---|---|---|---|
| 2026-05-05 16:57 | 37.93282 | 23.94546 | 306 ft | 0 kts | 308° |
| 2026-05-05 17:10 | 37.93272 | 23.94563 | 306 ft | 4 kts | 308° |
| 2026-05-05 17:10 | 37.93260 | 23.94583 | 306 ft | 4 kts | 297° |
| 2026-05-05 17:10 | 37.93254 | 23.94609 | 304 ft | 4 kts | 265° |
| 2026-05-05 17:10 | 37.93261 | 23.94633 | 304 ft | 4 kts | 231° |
| 2026-05-05 17:11 | 37.93275 | 23.94650 | 305 ft | 0 kts | 217° |
| 2026-05-05 17:14 | 37.93270 | 23.94645 | 306 ft | 3 kts | 217° |
| 2026-05-05 17:14 | 37.93222 | 23.94610 | 308 ft | 12 kts | 198° |
| 2026-05-05 17:14 | 37.93138 | 23.94594 | 309 ft | 13 kts | 171° |
| 2026-05-05 17:14 | 37.93080 | 23.94642 | 310 ft | 11 kts | 141° |
| 2026-05-05 17:15 | 37.92993 | 23.94646 | 308 ft | 16 kts | 208° |
| 2026-05-05 17:15 | 37.92880 | 23.94550 | 307 ft | 22 kts | 217° |
| 2026-05-05 17:15 | 37.92743 | 23.94421 | 309 ft | 24 kts | 217° |
| 2026-05-05 17:15 | 37.92610 | 23.94295 | 310 ft | 22 kts | 217° |
| 2026-05-05 17:16 | 37.92540 | 23.94229 | 310 ft | 16 kts | 217° |
| 2026-05-05 17:16 | 37.92473 | 23.94179 | 311 ft | 8 kts | 173° |
| 2026-05-05 17:16 | 37.92439 | 23.94193 | 312 ft | 3 kts | 158° |
| 2026-05-05 17:16 | 37.92427 | 23.94202 | 311 ft | 0 kts | 122° |
| 2026-05-05 17:19 | 37.92425 | 23.94206 | 310 ft | 2 kts | 119° |
| 2026-05-05 17:19 | 37.92412 | 23.94275 | 311 ft | 14 kts | 96° |
| 2026-05-05 17:19 | 37.92429 | 23.94395 | 315 ft | 16 kts | 39° |
| 2026-05-05 17:20 | 37.92439 | 23.94405 | 315 ft | 0 kts | 36° |
| 2026-05-05 17:20 | 37.92442 | 23.94408 | 315 ft | 0 kts | 37° |
| 2026-05-05 17:20 | 37.92451 | 23.94416 | 316 ft | 17 kts | 37° |
| 2026-05-05 17:20 | 37.92788 | 23.94736 | 306 ft | 101 kts | 37° |
| 2026-05-05 17:21 | 37.93526 | 23.95439 | 295 ft | 159 kts | 37° |
| 2026-05-05 17:21 | 37.94450 | 23.96341 | 649 ft | 170 kts | 39° |
| 2026-05-05 17:21 | 37.95379 | 23.97285 | 1194 ft | 172 kts | 40° |
| 2026-05-05 17:22 | 37.97219 | 23.99249 | 2234 ft | 173 kts | 40° |
| 2026-05-05 17:22 | 37.98118 | 24.00256 | 2764 ft | 171 kts | 40° |
| 2026-05-05 17:22 | 37.99035 | 24.01209 | 3261 ft | 170 kts | 35° |
| 2026-05-05 17:22 | 37.99996 | 24.02065 | 3733 ft | 167 kts | 30° |
| 2026-05-05 17:23 | 38.00987 | 24.02818 | 4177 ft | 166 kts | 27° |
| 2026-05-05 17:23 | 38.02015 | 24.03627 | 4353 ft | 184 kts | 31° |
| 2026-05-05 17:23 | 38.03109 | 24.04614 | 4580 ft | 201 kts | 34° |
| 2026-05-05 17:23 | 38.04271 | 24.05724 | 4718 ft | 217 kts | 34° |
| 2026-05-05 17:24 | 38.05354 | 24.06770 | 4931 ft | 239 kts | 34° |
| 2026-05-05 17:24 | 38.06754 | 24.08006 | 5380 ft | 254 kts | 21° |
| 2026-05-05 17:24 | 38.08485 | 24.08379 | 6138 ft | 255 kts | 352° |
| 2026-05-05 17:24 | 38.10136 | 24.07614 | 7031 ft | 257 kts | 326° |
| 2026-05-05 17:25 | 38.11334 | 24.05902 | 7819 ft | 267 kts | 299° |
| 2026-05-05 17:25 | 38.11730 | 24.04404 | 8364 ft | 275 kts | 282° |
| 2026-05-05 17:25 | 38.11550 | 24.01107 | 9467 ft | 287 kts | 263° |
| 2026-05-05 17:25 | 38.11171 | 23.98602 | 10250 ft | 291 kts | 264° |
| 2026-05-05 17:26 | 38.10879 | 23.96047 | 11010 ft | 293 kts | 268° |
| 2026-05-05 17:26 | 38.10692 | 23.93462 | 11782 ft | 296 kts | 270° |
| 2026-05-05 17:26 | 38.10568 | 23.90840 | 12498 ft | 299 kts | 271° |
| 2026-05-05 17:26 | 38.10478 | 23.88203 | 13255 ft | 302 kts | 272° |
| 2026-05-05 17:27 | 38.10399 | 23.85521 | 13953 ft | 307 kts | 272° |
| 2026-05-05 17:27 | 38.10317 | 23.82804 | 14650 ft | 308 kts | 272° |
| 2026-05-05 17:27 | 38.10232 | 23.80080 | 15327 ft | 310 kts | 272° |
| 2026-05-05 17:27 | 38.10144 | 23.77342 | 15976 ft | 311 kts | 272° |
| 2026-05-05 17:28 | 38.10054 | 23.74587 | 16617 ft | 313 kts | 272° |
| 2026-05-05 17:28 | 38.09962 | 23.71826 | 17287 ft | 314 kts | 272° |
| 2026-05-05 17:28 | 38.09871 | 23.69081 | 17882 ft | 317 kts | 272° |
| 2026-05-05 17:28 | 38.09776 | 23.66244 | 18529 ft | 319 kts | 272° |
| 2026-05-05 17:29 | 38.09684 | 23.63407 | 18693 ft | 334 kts | 272° |
| 2026-05-05 17:29 | 38.09586 | 23.60395 | 18835 ft | 349 kts | 272° |
| 2026-05-05 17:29 | 38.09483 | 23.57248 | 18958 ft | 364 kts | 272° |
| 2026-05-05 17:29 | 38.09370 | 23.53985 | 19258 ft | 373 kts | 272° |
| 2026-05-05 17:30 | 38.09250 | 23.50695 | 19831 ft | 373 kts | 272° |
| 2026-05-05 17:30 | 38.09130 | 23.47396 | 20330 ft | 376 kts | 272° |
| 2026-05-05 17:30 | 38.09012 | 23.44099 | 20871 ft | 377 kts | 272° |
| 2026-05-05 17:30 | 38.08891 | 23.40762 | 21393 ft | 378 kts | 271° |
| 2026-05-05 17:31 | 38.08770 | 23.37419 | 21872 ft | 381 kts | 272° |
| 2026-05-05 17:31 | 38.08647 | 23.34059 | 22333 ft | 382 kts | 272° |
| 2026-05-05 17:31 | 38.08523 | 23.30684 | 22792 ft | 383 kts | 272° |
| 2026-05-05 17:31 | 38.08400 | 23.27301 | 23245 ft | 385 kts | 272° |
| 2026-05-05 17:32 | 38.08277 | 23.23897 | 23717 ft | 387 kts | 272° |
| 2026-05-05 17:32 | 38.08150 | 23.20479 | 24153 ft | 388 kts | 272° |
| 2026-05-05 17:32 | 38.08020 | 23.17051 | 24583 ft | 390 kts | 272° |
| 2026-05-05 17:32 | 38.07889 | 23.13601 | 25009 ft | 392 kts | 272° |
| 2026-05-05 17:33 | 38.07758 | 23.10140 | 25430 ft | 394 kts | 272° |
| 2026-05-05 17:33 | 38.07624 | 23.06668 | 25892 ft | 395 kts | 272° |
| 2026-05-05 17:33 | 38.07488 | 23.03176 | 26358 ft | 397 kts | 272° |
| 2026-05-05 17:33 | 38.07351 | 22.99665 | 26832 ft | 399 kts | 272° |
| 2026-05-05 17:34 | 38.07211 | 22.96137 | 27318 ft | 402 kts | 272° |
| 2026-05-05 17:34 | 38.07070 | 22.92579 | 27813 ft | 404 kts | 272° |
| 2026-05-05 17:34 | 38.06927 | 22.89014 | 28330 ft | 406 kts | 272° |
| 2026-05-05 17:34 | 38.06925 | 22.85443 | 28813 ft | 403 kts | 281° |
| 2026-05-05 17:35 | 38.07548 | 22.82010 | 29338 ft | 398 kts | 294° |
| 2026-05-05 17:35 | 38.08794 | 22.78898 | 29849 ft | 396 kts | 306° |
| 2026-05-05 17:35 | 38.10591 | 22.76267 | 30342 ft | 396 kts | 319° |
| 2026-05-05 17:35 | 38.12719 | 22.74048 | 30804 ft | 397 kts | 321° |
| 2026-05-05 17:36 | 38.14884 | 22.71829 | 31258 ft | 400 kts | 321° |
| 2026-05-05 17:36 | 38.17039 | 22.69590 | 31701 ft | 401 kts | 321° |
| 2026-05-05 17:36 | 38.19196 | 22.67320 | 32178 ft | 404 kts | 321° |
| 2026-05-05 17:36 | 38.21354 | 22.65029 | 32600 ft | 406 kts | 321° |
| 2026-05-05 17:37 | 38.23523 | 22.62719 | 33134 ft | 406 kts | 320° |
| 2026-05-05 17:37 | 38.24954 | 22.61191 | 33527 ft | 405 kts | 321° |
| 2026-05-05 17:37 | 38.27849 | 22.58095 | 34103 ft | 409 kts | 321° |
| 2026-05-05 17:37 | 38.30038 | 22.55753 | 34417 ft | 413 kts | 321° |
| 2026-05-05 17:38 | 38.32243 | 22.53391 | 34776 ft | 416 kts | 320° |
| 2026-05-05 17:38 | 38.34461 | 22.51015 | 35202 ft | 417 kts | 320° |
| 2026-05-05 17:38 | 38.36677 | 22.48637 | 35622 ft | 417 kts | 320° |
| 2026-05-05 17:38 | 38.38902 | 22.46249 | 36044 ft | 418 kts | 319° |
| 2026-05-05 17:39 | 38.41132 | 22.43853 | 36355 ft | 421 kts | 319° |
| 2026-05-05 17:39 | 38.43376 | 22.41439 | 36750 ft | 422 kts | 319° |
| 2026-05-05 17:39 | 38.45619 | 22.39025 | 37190 ft | 422 kts | 319° |
| 2026-05-05 17:39 | 38.47866 | 22.36605 | 37628 ft | 422 kts | 318° |
| 2026-05-05 17:40 | 38.50111 | 22.34185 | 38025 ft | 424 kts | 318° |
| 2026-05-05 17:40 | 38.54669 | 22.29265 | 38087 ft | 426 kts | 318° |
| 2026-05-05 17:41 | 38.59182 | 22.24386 | 38083 ft | 426 kts | 318° |